createdAt,value
2022-12-15T05:17:41.826Z,16.00
2022-12-15T05:20:29.401Z,17.45
2022-12-15T05:23:17.984Z,15.88
2022-12-15T05:26:05.104Z,15.13
2022-12-15T05:28:52.684Z,15.57
2022-12-15T05:31:39.370Z,16.88
2022-12-15T05:34:07.123Z,19.48
2022-12-15T05:36:35.040Z,25.90
2022-12-15T05:39:04.164Z,26.80
2022-12-15T05:41:32.477Z,22.38
2022-12-15T05:44:01.704Z,18.80
2022-12-15T05:46:29.859Z,17.23
2022-12-15T05:48:58.061Z,16.65
2022-12-15T05:51:26.025Z,17.92
2022-12-15T05:53:54.780Z,26.35
2022-12-15T05:56:22.731Z,31.30
2022-12-15T05:58:50.742Z,25.02
2022-12-15T06:01:20.250Z,20.40
2022-12-15T06:03:48.205Z,17.80
2022-12-15T06:06:16.574Z,18.55
2022-12-15T06:08:44.893Z,18.50
2022-12-15T06:11:15.737Z,23.52
2022-12-15T06:13:45.640Z,22.17
2022-12-15T06:16:19.764Z,18.58
2022-12-15T06:18:54.476Z,18.35
2022-12-15T06:21:35.787Z,19.67
2022-12-15T06:24:08.124Z,18.15
2022-12-15T06:26:40.261Z,16.95
2022-12-15T06:29:12.844Z,17.95
2022-12-15T06:31:41.829Z,17.35
2022-12-15T06:34:15.863Z,17.67
2022-12-15T06:36:44.339Z,17.92
2022-12-15T06:39:15.622Z,19.40
2022-12-15T06:41:44.075Z,15.93
2022-12-15T06:44:16.791Z,16.38
2022-12-15T06:46:46.968Z,16.10
2022-12-15T06:49:15.391Z,17.05
2022-12-15T06:51:45.246Z,16.42
2022-12-15T06:54:13.913Z,20.52
2022-12-15T06:56:42.651Z,19.55
2022-12-15T06:59:12.132Z,18.85
2022-12-15T07:01:42.149Z,13.70
2022-12-15T07:04:14.325Z,22.95
2022-12-15T07:09:17.692Z,22.17
2022-12-15T07:11:50.700Z,19.27
2022-12-15T07:14:23.156Z,18.27
2022-12-15T07:16:57.692Z,18.40
2022-12-15T07:19:26.651Z,19.60
2022-12-15T07:22:00.081Z,18.15
2022-12-15T07:26:59.087Z,16.92
2022-12-15T07:29:29.033Z,17.65
2022-12-15T07:32:03.974Z,18.55
2022-12-15T07:34:32.339Z,19.30
2022-12-15T07:37:00.588Z,19.52
2022-12-15T07:39:28.557Z,20.35
2022-12-15T07:41:57.864Z,19.50
2022-12-15T07:44:26.700Z,18.92
2022-12-15T07:46:55.581Z,19.67
2022-12-15T07:49:23.972Z,23.35
2022-12-15T07:51:52.046Z,19.17
2022-12-15T07:54:20.949Z,19.35
2022-12-15T07:56:50.360Z,18.38
2022-12-15T07:59:19.898Z,18.65
2022-12-15T08:01:48.155Z,17.48
2022-12-15T08:04:17.330Z,18.23
2022-12-15T08:06:45.965Z,17.80
2022-12-15T08:09:14.207Z,18.50
2022-12-15T08:11:43.335Z,17.67
2022-12-15T08:14:16.940Z,17.55
2022-12-15T08:16:55.829Z,18.13
2022-12-15T08:19:25.986Z,19.98
2022-12-15T08:21:54.507Z,20.70
2022-12-15T08:24:24.515Z,27.05
2022-12-15T08:26:53.424Z,23.05
2022-12-15T08:32:12.680Z,21.40
2022-12-15T08:34:42.697Z,20.35
2022-12-15T08:37:12.638Z,28.00
2022-12-15T08:39:41.336Z,27.13
2022-12-15T08:42:11.067Z,28.50
2022-12-15T08:44:39.125Z,28.00
2022-12-15T08:47:08.445Z,23.33
2022-12-15T08:49:36.575Z,20.92
2022-12-15T08:52:04.841Z,20.63
2022-12-15T08:54:33.485Z,21.02
2022-12-15T08:57:04.085Z,19.90
2022-12-15T08:59:32.737Z,21.80
2022-12-15T09:02:02.129Z,23.85
2022-12-15T09:04:30.804Z,24.38
2022-12-15T09:06:59.511Z,34.05
2022-12-15T09:09:28.286Z,29.05
2022-12-15T09:11:56.497Z,23.92
2022-12-15T09:14:29.083Z,22.10
2022-12-15T09:16:57.955Z,21.33
2022-12-15T09:19:27.105Z,19.77
2022-12-15T09:21:56.093Z,19.92
2022-12-15T09:24:34.035Z,19.77
2022-12-15T09:27:03.728Z,19.27
2022-12-15T09:29:35.304Z,20.07
2022-12-15T09:32:08.980Z,20.02
2022-12-15T09:34:41.720Z,19.02
2022-12-15T09:37:09.643Z,19.02
2022-12-15T09:39:39.616Z,20.52
2022-12-15T09:42:27.616Z,26.70
2022-12-15T09:45:24.081Z,25.65
2022-12-15T09:48:10.075Z,24.90
2022-12-15T09:50:41.599Z,21.08
2022-12-15T09:56:34.570Z,21.20
2022-12-15T09:59:46.805Z,19.83
2022-12-15T10:02:22.113Z,18.70
2022-12-15T10:05:01.417Z,19.48
2022-12-15T10:07:41.052Z,19.58
2022-12-15T10:10:27.343Z,20.52
2022-12-15T10:13:02.501Z,19.02
2022-12-15T10:15:41.740Z,19.77
2022-12-15T10:19:16.449Z,20.00
2022-12-15T10:21:44.434Z,20.23
2022-12-15T10:24:51.741Z,21.80
2022-12-15T10:27:17.215Z,21.40
2022-12-15T10:30:17.556Z,19.83
2022-12-15T10:33:21.921Z,19.48
2022-12-15T10:35:54.452Z,20.42
2022-12-15T10:41:08.925Z,19.90
2022-12-15T10:43:43.458Z,19.73
2022-12-15T10:46:32.350Z,20.63
2022-12-15T10:49:23.004Z,21.08
2022-12-15T10:52:02.935Z,22.67
2022-12-15T10:54:37.460Z,20.65
2022-12-15T10:57:58.353Z,20.55
2022-12-15T11:00:32.951Z,20.27
2022-12-15T11:03:01.961Z,19.25
2022-12-15T11:05:32.378Z,19.15
2022-12-15T11:08:31.278Z,19.85
2022-12-15T11:11:19.033Z,19.30
2022-12-15T11:14:11.750Z,19.52
2022-12-15T11:16:50.642Z,19.10
2022-12-15T11:19:46.400Z,19.92
2022-12-15T11:22:42.078Z,19.35
2022-12-15T11:25:55.064Z,18.30
2022-12-15T11:28:41.094Z,19.23
2022-12-15T11:31:25.213Z,20.25
2022-12-15T11:33:56.335Z,17.35
2022-12-15T11:37:13.138Z,18.17
2022-12-15T11:40:15.408Z,17.25
2022-12-15T11:43:39.254Z,16.45
2022-12-15T11:46:54.666Z,16.38
2022-12-15T11:49:49.790Z,17.15
2022-12-15T11:52:22.647Z,17.30
2022-12-15T11:57:52.145Z,18.05
2022-12-15T12:00:23.833Z,18.17
2022-12-15T12:05:42.688Z,17.45
2022-12-15T12:09:21.549Z,17.63
2022-12-15T12:12:05.188Z,17.98
2022-12-15T12:14:45.837Z,18.80
2022-12-15T12:17:49.556Z,19.10
2022-12-15T12:20:54.666Z,18.63
2022-12-15T12:23:54.397Z,27.98
2022-12-15T12:27:12.729Z,21.85
2022-12-15T12:29:59.449Z,19.63
2022-12-15T12:33:21.502Z,19.38
2022-12-15T12:36:03.307Z,17.73
2022-12-15T12:38:41.680Z,17.63
2022-12-15T12:41:21.817Z,17.75
2022-12-15T12:43:58.980Z,17.50
2022-12-15T12:46:40.558Z,17.13
2022-12-15T12:49:42.946Z,20.15
2022-12-15T12:52:34.915Z,19.85
2022-12-15T12:55:26.146Z,20.08
2022-12-15T12:57:57.028Z,17.77
2022-12-15T13:00:32.749Z,23.58
2022-12-15T13:03:18.720Z,24.63
2022-12-15T13:05:50.781Z,26.98
2022-12-15T13:08:29.429Z,22.73
2022-12-15T13:11:53.783Z,27.85
2022-12-15T13:14:46.599Z,22.80
2022-12-15T13:17:39.370Z,23.90
2022-12-15T13:20:26.718Z,24.60
2022-12-15T13:23:20.605Z,27.73
2022-12-15T13:25:55.825Z,29.52
2022-12-15T13:28:37.501Z,22.55
2022-12-15T13:31:21.869Z,21.77
2022-12-15T13:33:50.797Z,19.70
2022-12-15T13:36:40.534Z,20.40
2022-12-15T13:39:18.502Z,21.17
2022-12-15T13:42:32.509Z,21.00
2022-12-15T13:44:52.515Z,21.42
2022-12-15T13:47:28.730Z,20.27
2022-12-15T13:50:30.951Z,24.60
2022-12-15T13:53:20.201Z,25.95
2022-12-15T13:56:39.263Z,29.70
2022-12-15T13:59:43.435Z,28.23
2022-12-15T14:02:38.769Z,26.38
2022-12-15T14:05:19.725Z,25.15
2022-12-15T14:08:03.737Z,30.02
2022-12-15T14:10:49.041Z,26.83
2022-12-15T14:13:37.410Z,30.02
2022-12-15T14:16:21.497Z,35.67
2022-12-15T14:21:57.837Z,29.52
2022-12-15T14:24:40.197Z,30.15
2022-12-15T14:27:10.446Z,35.65
2022-12-15T14:29:39.724Z,37.25
2022-12-15T14:32:10.698Z,37.45
2022-12-15T14:34:42.072Z,32.28
2022-12-15T14:37:20.258Z,27.83
2022-12-15T15:07:19.260Z,58.03
2022-12-15T15:09:47.890Z,39.45
2022-12-15T15:12:25.249Z,35.08
2022-12-15T15:15:08.620Z,34.08
2022-12-15T15:17:43.884Z,35.00
2022-12-15T15:20:38.436Z,34.90
2022-12-15T15:23:19.770Z,34.50
2022-12-15T15:28:41.183Z,34.40
2022-12-15T15:31:35.268Z,40.00
2022-12-15T15:34:11.622Z,49.17
2022-12-15T15:36:40.695Z,48.53
2022-12-15T15:39:16.119Z,47.10
2022-12-15T15:41:45.232Z,46.17
2022-12-15T15:44:16.034Z,39.83
2022-12-15T15:46:52.821Z,31.93
2022-12-15T15:49:24.761Z,27.85
2022-12-15T15:51:54.897Z,27.30
2022-12-15T15:54:28.737Z,26.90
2022-12-15T15:56:58.676Z,24.33
2022-12-15T15:59:29.173Z,25.35
2022-12-15T16:01:59.395Z,29.45
2022-12-15T16:04:29.615Z,36.95
2022-12-15T16:07:09.310Z,44.30
2022-12-15T16:09:40.986Z,36.67
2022-12-15T16:12:42.789Z,33.00
2022-12-15T16:15:20.993Z,26.33
2022-12-15T16:17:50.222Z,36.42
2022-12-15T16:20:21.895Z,31.17
2022-12-15T16:26:03.134Z,35.60
2022-12-15T16:31:01.806Z,31.30
2022-12-15T16:33:30.071Z,28.90
2022-12-15T16:36:00.250Z,27.50
2022-12-15T16:38:31.757Z,26.75
2022-12-15T16:43:59.599Z,24.55
2022-12-15T16:46:28.946Z,24.27
2022-12-15T16:49:00.040Z,25.35
2022-12-15T16:51:42.714Z,25.05
2022-12-15T16:54:23.660Z,25.80
2022-12-15T16:56:56.130Z,24.83
2022-12-15T16:59:36.243Z,25.90
2022-12-15T17:02:28.370Z,25.70
2022-12-15T17:04:57.579Z,26.27
2022-12-15T17:07:30.184Z,27.10
2022-12-15T17:12:27.051Z,24.35
2022-12-15T17:14:58.156Z,25.83
2022-12-15T17:17:28.768Z,25.17
2022-12-15T17:22:49.187Z,22.70
2022-12-15T17:25:46.147Z,22.85
2022-12-15T17:28:22.178Z,21.85
2022-12-15T17:30:52.871Z,22.23
2022-12-15T17:33:27.990Z,22.55
2022-12-15T17:36:03.216Z,22.05
2022-12-15T17:38:31.694Z,22.00
2022-12-15T17:41:02.056Z,22.60
2022-12-15T17:43:35.860Z,23.27
2022-12-15T17:46:04.907Z,23.23
2022-12-15T17:48:33.857Z,22.05
2022-12-15T17:51:02.853Z,21.67
2022-12-15T17:53:33.173Z,20.65
2022-12-15T17:56:03.848Z,21.35
2022-12-15T17:58:32.106Z,22.10
2022-12-15T18:01:00.336Z,21.95
2022-12-15T18:03:31.950Z,17.97
2022-12-15T18:06:00.523Z,23.25
2022-12-15T18:08:33.289Z,22.52
2022-12-15T18:11:03.884Z,23.05
2022-12-15T18:13:35.670Z,22.67
2022-12-15T18:16:04.754Z,22.30
2022-12-15T18:18:35.320Z,22.63
2022-12-15T18:41:28.216Z,24.05
2022-12-15T18:43:58.976Z,23.40
2022-12-15T18:46:28.432Z,21.92
2022-12-15T18:48:56.912Z,20.25
2022-12-15T18:51:30.910Z,22.50
2022-12-15T18:54:02.753Z,22.35
2022-12-15T18:56:30.705Z,22.60
2022-12-15T18:59:02.180Z,21.83
2022-12-15T19:01:30.618Z,21.85
2022-12-15T19:04:01.956Z,20.05
2022-12-15T19:06:43.914Z,19.98
2022-12-15T19:09:21.806Z,20.20
2022-12-15T19:12:19.548Z,18.98
2022-12-15T19:14:55.022Z,20.55
2022-12-15T19:17:43.149Z,20.00
2022-12-15T19:20:55.570Z,19.40
2022-12-15T19:25:53.185Z,20.58
2022-12-15T19:28:24.411Z,20.33
2022-12-15T19:30:53.376Z,18.95
2022-12-15T19:33:21.576Z,19.02
2022-12-15T19:35:51.594Z,19.83
2022-12-15T19:38:27.313Z,20.48
2022-12-15T19:40:56.390Z,21.17
2022-12-15T19:43:25.519Z,20.95
2022-12-15T19:45:53.944Z,19.27
2022-12-15T19:48:24.091Z,19.85
2022-12-15T19:50:54.637Z,20.42
2022-12-15T19:53:27.300Z,19.98
2022-12-15T19:55:59.007Z,20.38
2022-12-15T19:58:33.642Z,20.88
2022-12-15T20:01:06.945Z,19.65
2022-12-15T20:03:36.931Z,17.98
2022-12-15T20:06:17.477Z,18.30
2022-12-15T20:08:52.362Z,17.30
2022-12-15T20:11:27.056Z,17.50
2022-12-15T20:13:56.233Z,18.02
2022-12-15T20:16:24.873Z,16.65
2022-12-15T20:18:56.058Z,17.77
2022-12-15T20:21:32.363Z,17.42
2022-12-15T20:24:07.537Z,17.85
2022-12-15T20:26:37.589Z,18.00
2022-12-15T20:29:12.095Z,17.92
2022-12-15T20:31:40.653Z,17.83
2022-12-15T20:34:08.830Z,17.33
2022-12-15T20:36:36.957Z,18.55
2022-12-15T20:39:10.677Z,18.73
2022-12-15T20:41:38.943Z,18.42
2022-12-15T20:44:13.436Z,18.00
2022-12-15T20:46:43.135Z,18.88
2022-12-15T20:49:20.165Z,17.73
2022-12-15T20:51:50.005Z,18.85
2022-12-15T20:54:21.924Z,19.30
2022-12-15T20:56:50.656Z,19.45
2022-12-15T20:59:19.495Z,18.40
2022-12-15T21:01:48.339Z,18.38
2022-12-15T21:04:29.960Z,18.52
2022-12-15T21:06:58.797Z,18.70
2022-12-15T21:09:26.685Z,18.27
2022-12-15T21:11:55.142Z,19.33
2022-12-15T21:14:25.069Z,19.17
2022-12-15T21:16:53.433Z,18.08
2022-12-15T21:19:22.837Z,19.05
2022-12-15T21:21:55.575Z,19.13
2022-12-15T21:24:27.340Z,18.63
2022-12-15T21:29:28.430Z,20.15
2022-12-15T21:31:56.419Z,21.17
2022-12-15T21:34:24.812Z,20.83
2022-12-15T21:36:55.283Z,22.50
2022-12-15T21:39:35.575Z,19.00
2022-12-15T21:42:14.305Z,19.00
2022-12-15T21:44:43.031Z,19.02
2022-12-15T21:47:50.400Z,20.23
2022-12-15T21:50:20.450Z,19.55
2022-12-15T21:52:48.833Z,20.40
2022-12-15T21:55:18.937Z,19.20
2022-12-15T21:57:46.891Z,19.17
2022-12-15T22:00:18.442Z,19.33
2022-12-15T22:02:48.894Z,19.48
2022-12-15T22:05:20.389Z,20.45
2022-12-15T22:07:49.625Z,19.00
2022-12-15T22:10:18.262Z,19.90
2022-12-15T22:12:59.041Z,20.17
2022-12-15T22:15:29.243Z,18.13
2022-12-15T22:17:56.991Z,19.02
2022-12-15T22:20:25.728Z,17.92
2022-12-15T22:22:53.533Z,17.60
2022-12-15T22:25:25.636Z,17.92
2022-12-15T22:27:54.781Z,17.50
2022-12-15T22:30:26.601Z,18.48
2022-12-15T22:32:54.707Z,16.90
2022-12-15T22:35:25.843Z,17.58
2022-12-15T22:37:55.248Z,17.45
2022-12-15T22:40:38.833Z,17.63
2022-12-15T22:43:21.750Z,18.70
2022-12-15T22:45:53.275Z,18.15
2022-12-15T22:48:24.385Z,18.73
2022-12-15T22:50:52.409Z,18.05
2022-12-15T22:53:21.068Z,17.98
2022-12-15T22:55:51.069Z,18.55
2022-12-15T22:58:53.560Z,18.05
2022-12-15T23:01:21.671Z,18.13
2022-12-15T23:03:52.143Z,17.10
2022-12-15T23:06:20.345Z,17.52
2022-12-15T23:08:55.853Z,18.05
2022-12-15T23:11:37.090Z,17.38
2022-12-15T23:14:16.609Z,13.38
2022-12-15T23:16:46.394Z,16.75
2022-12-15T23:19:23.909Z,17.98
2022-12-15T23:21:52.331Z,17.27
2022-12-15T23:24:20.289Z,17.13
2022-12-15T23:26:49.039Z,16.13
2022-12-15T23:29:16.983Z,16.70
2022-12-15T23:31:44.743Z,16.38
2022-12-15T23:34:12.685Z,16.88
2022-12-15T23:36:40.512Z,17.15
2022-12-15T23:39:08.488Z,18.25
2022-12-15T23:41:36.294Z,17.10
2022-12-15T23:44:04.004Z,17.10
2022-12-15T23:46:31.767Z,16.85
2022-12-15T23:48:59.936Z,17.13
2022-12-15T23:51:27.896Z,16.95
2022-12-15T23:53:55.630Z,17.98
2022-12-15T23:56:25.135Z,17.33
2022-12-15T23:58:59.275Z,17.67
